Fenn Haven, Indiana
Current Conditions -  °F | °C
As of 5:55 PM on Monday 20 Oct 2014 (Local Time) from KHNB Reporting Station
Few Clouds Few Clouds  
Wind Chill: 64°   Ceiling: Unl
Heat Index: 64°   Visibility: 10mi
Dew Point: 52°   Wind: 8mph
Humidity: 64%   Direction: 280°W
Pressure: 29.9"   Gusts: NA
Location:  38.0217°N, 86.7099°W
Report Text: KHNB 202255Z AUTO 28007KT 10SM FEW065 18/11 A2990 RMK AO1
Loading
Personal Weather Stations






























Interactive Weather Map
Tropical Storm Tracking
New forecast layout! Learn more

10-Day Weather Forecast

Advertisements
Track Severe Weather on mobile